createdAt,value
2018-04-30T00:00:21.782Z,13.60
2018-04-30T00:02:50.075Z,13.60
2018-04-30T00:05:18.387Z,13.70
2018-04-30T00:07:46.681Z,13.70
2018-04-30T00:10:15.002Z,13.70
2018-04-30T00:12:42.821Z,13.70
2018-04-30T00:15:11.143Z,13.70
2018-04-30T00:17:39.435Z,13.70
2018-04-30T00:20:07.747Z,13.70
2018-04-30T00:22:35.279Z,13.70
2018-04-30T00:25:03.592Z,13.70
2018-04-30T00:27:31.908Z,13.70
2018-04-30T00:30:00.220Z,13.70
2018-04-30T00:32:28.519Z,13.70
2018-04-30T00:34:56.830Z,13.70
2018-04-30T00:37:24.355Z,13.70
2018-04-30T00:39:52.670Z,13.80
2018-04-30T00:42:20.963Z,13.80
2018-04-30T00:44:49.283Z,13.80
2018-04-30T00:47:17.587Z,13.80
2018-04-30T00:49:45.879Z,13.80
2018-04-30T00:52:14.198Z,13.80
2018-04-30T00:54:53.616Z,13.80
2018-04-30T00:57:21.906Z,13.90
2018-04-30T00:59:50.203Z,13.90
2018-04-30T01:02:18.515Z,13.90
2018-04-30T01:04:46.810Z,13.80
2018-04-30T01:07:15.118Z,13.90
2018-04-30T01:09:43.492Z,13.90
2018-04-30T01:12:11.049Z,13.90
2018-04-30T01:14:39.346Z,13.80
2018-04-30T01:17:07.659Z,13.80
2018-04-30T01:19:35.950Z,13.90
2018-04-30T01:22:04.262Z,13.80
2018-04-30T01:24:32.554Z,13.90
2018-04-30T01:27:00.867Z,13.90
2018-04-30T01:29:29.154Z,13.90
2018-04-30T01:31:57.472Z,13.90
2018-04-30T01:34:25.783Z,13.90
2018-04-30T01:36:54.088Z,13.90
2018-04-30T01:39:22.388Z,13.90
2018-04-30T01:41:50.701Z,13.90
2018-04-30T01:44:18.996Z,13.90
2018-04-30T01:46:47.307Z,13.90
2018-04-30T01:49:15.599Z,13.90
2018-04-30T01:51:43.919Z,13.90
2018-04-30T01:54:12.221Z,13.80
2018-04-30T01:56:40.531Z,13.80
2018-04-30T01:59:08.828Z,13.90
2018-04-30T02:01:37.144Z,13.90
2018-04-30T02:04:05.447Z,13.90
2018-04-30T02:06:33.791Z,13.90
2018-04-30T02:09:02.092Z,13.90
2018-04-30T02:11:30.419Z,13.80
2018-04-30T02:13:58.713Z,13.80
2018-04-30T02:16:27.031Z,13.70
2018-04-30T02:18:55.335Z,13.70
2018-04-30T02:21:23.649Z,13.60
2018-04-30T02:23:51.943Z,13.50
2018-04-30T02:26:20.263Z,13.50
2018-04-30T02:28:48.560Z,13.40
2018-04-30T02:31:16.871Z,13.30
2018-04-30T02:33:45.167Z,13.20
2018-04-30T02:36:13.503Z,13.20
2018-04-30T02:38:41.794Z,13.10
2018-04-30T02:41:10.093Z,13.10
2018-04-30T02:43:38.406Z,13.00
2018-04-30T02:46:06.820Z,13.00
2018-04-30T02:48:35.169Z,12.90
2018-04-30T02:51:03.503Z,12.80
2018-04-30T02:53:31.821Z,12.70
2018-04-30T02:56:00.120Z,12.70
2018-04-30T02:58:28.435Z,12.70
2018-04-30T03:00:56.727Z,12.70
2018-04-30T03:03:25.051Z,12.60
2018-04-30T03:05:53.345Z,12.60
2018-04-30T03:08:21.657Z,12.60
2018-04-30T03:10:49.955Z,12.60
2018-04-30T03:13:18.276Z,12.60
2018-04-30T03:15:46.579Z,12.60
2018-04-30T03:18:14.896Z,12.50
2018-04-30T03:20:43.195Z,12.50
2018-04-30T03:23:11.512Z,12.40
2018-04-30T03:25:39.808Z,12.40
2018-04-30T03:28:08.119Z,12.40
2018-04-30T03:30:36.408Z,12.30
2018-04-30T03:33:05.603Z,12.30
2018-04-30T03:35:33.887Z,12.30
2018-04-30T03:38:02.208Z,12.30
2018-04-30T03:40:30.503Z,12.30
2018-04-30T03:42:58.820Z,12.30
2018-04-30T03:45:27.120Z,12.30
2018-04-30T03:47:55.440Z,12.30
2018-04-30T03:50:23.732Z,12.30
2018-04-30T03:52:52.051Z,12.30
2018-04-30T03:55:19.579Z,12.30
2018-04-30T03:57:47.895Z,12.30
2018-04-30T04:00:28.150Z,12.20
2018-04-30T04:03:08.323Z,12.20
2018-04-30T04:05:48.503Z,12.20
2018-04-30T04:08:16.815Z,12.20
2018-04-30T04:10:45.110Z,12.20
2018-04-30T04:13:13.422Z,12.20
2018-04-30T04:15:41.716Z,12.10
2018-04-30T04:18:09.273Z,12.10
2018-04-30T04:20:37.571Z,12.10
2018-04-30T04:23:05.886Z,12.10
2018-04-30T04:25:34.227Z,12.10
2018-04-30T04:28:02.542Z,12.00
2018-04-30T04:30:30.834Z,12.00
2018-04-30T04:32:59.142Z,12.00
2018-04-30T04:35:27.442Z,11.90
2018-04-30T04:37:55.783Z,11.90
2018-04-30T04:40:24.060Z,11.90
2018-04-30T04:42:52.359Z,11.80
2018-04-30T04:45:20.675Z,11.80
2018-04-30T04:47:48.971Z,11.80
2018-04-30T04:50:17.291Z,11.80
2018-04-30T04:52:45.578Z,11.80
2018-04-30T04:55:13.887Z,11.80
2018-04-30T04:57:42.169Z,11.70
2018-04-30T05:00:10.487Z,11.70
2018-04-30T05:02:38.022Z,11.70
2018-04-30T05:05:06.336Z,11.70
2018-04-30T05:07:34.629Z,11.80
2018-04-30T05:10:02.958Z,11.80
2018-04-30T05:12:31.247Z,11.80
2018-04-30T05:14:59.567Z,11.80
2018-04-30T05:17:27.860Z,11.70
2018-04-30T05:19:56.175Z,11.70
2018-04-30T05:22:24.467Z,11.70
2018-04-30T05:24:52.783Z,11.60
2018-04-30T05:27:21.066Z,11.50
2018-04-30T05:29:49.387Z,11.50
2018-04-30T05:32:17.683Z,11.50
2018-04-30T05:34:46.008Z,11.40
2018-04-30T05:37:14.310Z,11.40
2018-04-30T05:39:42.623Z,11.30
2018-04-30T05:42:10.924Z,11.30
2018-04-30T05:44:39.241Z,11.30
2018-04-30T05:47:07.530Z,11.30
2018-04-30T05:49:35.842Z,11.30
2018-04-30T05:52:03.387Z,11.30
2018-04-30T05:54:31.703Z,11.30
2018-04-30T05:56:59.990Z,11.30
2018-04-30T05:59:28.301Z,11.30
2018-04-30T06:01:56.595Z,11.30
2018-04-30T06:04:24.912Z,11.30
2018-04-30T06:06:53.291Z,11.30
2018-04-30T06:09:21.547Z,11.30
2018-04-30T06:11:49.853Z,11.30
2018-04-30T06:14:18.171Z,11.30
2018-04-30T06:16:46.469Z,11.30
2018-04-30T06:19:14.796Z,11.30
2018-04-30T06:21:43.099Z,11.30
2018-04-30T06:24:11.426Z,11.30
2018-04-30T06:26:39.758Z,11.20
2018-04-30T06:29:08.031Z,11.20
2018-04-30T06:31:36.362Z,11.20
2018-04-30T06:34:04.663Z,11.30
2018-04-30T06:36:32.984Z,11.30
2018-04-30T06:39:01.268Z,11.30
2018-04-30T06:41:29.590Z,11.30
2018-04-30T06:43:58.107Z,11.30
2018-04-30T06:46:26.427Z,11.30
2018-04-30T06:48:54.726Z,11.30
2018-04-30T06:51:23.047Z,11.40
2018-04-30T06:53:51.362Z,11.40
2018-04-30T06:56:19.655Z,11.40
2018-04-30T06:58:47.966Z,11.40
2018-04-30T07:01:16.259Z,11.40
2018-04-30T07:03:44.583Z,11.40
2018-04-30T07:06:12.878Z,11.30
2018-04-30T07:08:41.198Z,11.30
2018-04-30T07:11:09.499Z,11.30
2018-04-30T07:13:37.822Z,11.30
2018-04-30T07:16:06.122Z,11.30
2018-04-30T07:18:35.055Z,11.30
2018-04-30T07:21:03.348Z,11.40
2018-04-30T07:23:31.667Z,11.50
2018-04-30T07:25:59.964Z,11.50
2018-04-30T07:28:28.291Z,11.40
2018-04-30T07:30:56.583Z,11.40
2018-04-30T07:33:24.903Z,11.30
2018-04-30T07:35:53.187Z,11.20
2018-04-30T07:38:21.507Z,11.20
2018-04-30T07:40:49.802Z,11.50
2018-04-30T07:43:18.127Z,12.00
2018-04-30T07:45:46.418Z,12.40
2018-04-30T07:48:14.747Z,12.70
2018-04-30T07:50:43.040Z,12.80
2018-04-30T07:53:11.368Z,12.70
2018-04-30T07:55:39.663Z,12.40
2018-04-30T07:58:07.982Z,12.20
2018-04-30T08:00:36.268Z,12.20
2018-04-30T08:03:04.615Z,12.40
2018-04-30T08:05:32.906Z,12.40
2018-04-30T08:08:01.255Z,12.30
2018-04-30T08:10:29.547Z,12.30
2018-04-30T08:12:57.871Z,12.40
2018-04-30T08:15:26.166Z,12.70
2018-04-30T08:17:54.483Z,12.80
2018-04-30T08:20:22.766Z,13.10
2018-04-30T08:22:51.083Z,13.30
2018-04-30T08:25:19.394Z,13.40
2018-04-30T08:27:47.691Z,13.60
2018-04-30T08:30:16.007Z,13.80
2018-04-30T08:32:44.294Z,13.90
2018-04-30T08:35:12.619Z,13.90
2018-04-30T08:37:40.911Z,13.90
2018-04-30T08:40:09.231Z,13.90
2018-04-30T08:42:37.530Z,13.70
2018-04-30T08:45:05.863Z,13.60
2018-04-30T08:47:34.166Z,13.40
2018-04-30T08:50:02.482Z,13.20
2018-04-30T08:52:30.775Z,13.30
2018-04-30T08:54:59.094Z,13.30
2018-04-30T08:57:27.387Z,13.20
2018-04-30T08:59:55.701Z,12.90
2018-04-30T09:02:24.000Z,12.80
2018-04-30T09:04:52.322Z,12.80
2018-04-30T09:07:20.615Z,13.00
2018-04-30T09:09:48.936Z,13.10
2018-04-30T09:12:16.464Z,13.10
2018-04-30T09:14:44.787Z,13.20
2018-04-30T09:17:13.079Z,13.20
2018-04-30T09:19:41.394Z,13.10
2018-04-30T09:22:09.683Z,13.00
2018-04-30T09:24:38.003Z,13.00
2018-04-30T09:27:05.529Z,12.90
2018-04-30T09:29:35.051Z,12.70
2018-04-30T09:32:02.600Z,12.70
2018-04-30T09:34:30.911Z,12.40
2018-04-30T09:36:59.203Z,12.40
2018-04-30T09:39:27.963Z,12.60
2018-04-30T09:41:56.259Z,12.70
2018-04-30T09:44:24.577Z,12.60
2018-04-30T09:46:52.866Z,12.80
2018-04-30T09:49:21.198Z,12.70
2018-04-30T09:51:49.486Z,12.60
2018-04-30T09:54:17.031Z,12.60
2018-04-30T09:56:45.323Z,12.50
2018-04-30T09:59:13.655Z,12.50
2018-04-30T10:01:41.951Z,12.50
2018-04-30T10:04:10.307Z,12.50
2018-04-30T10:06:38.606Z,12.50
2018-04-30T10:09:06.150Z,12.50
2018-04-30T10:11:34.438Z,12.40
2018-04-30T10:14:02.759Z,12.40
2018-04-30T10:16:31.047Z,12.40
2018-04-30T10:18:59.372Z,12.30
2018-04-30T10:21:27.675Z,12.30
2018-04-30T10:23:56.078Z,12.40
2018-04-30T10:26:24.312Z,12.50
2018-04-30T10:28:52.620Z,12.60
2018-04-30T10:31:20.942Z,12.80
2018-04-30T10:33:49.226Z,13.00
2018-04-30T10:36:17.555Z,13.10
2018-04-30T10:38:45.845Z,13.30
2018-04-30T10:41:14.170Z,13.50
2018-04-30T10:43:41.699Z,13.50
2018-04-30T10:46:10.028Z,14.10
2018-04-30T10:48:38.321Z,14.20
2018-04-30T10:51:06.650Z,14.10
2018-04-30T10:53:34.951Z,13.90
2018-04-30T10:56:03.271Z,13.60
2018-04-30T10:58:31.555Z,13.20
2018-04-30T11:00:59.878Z,13.00
2018-04-30T11:03:28.175Z,12.90
2018-04-30T11:05:55.736Z,12.90
2018-04-30T11:08:24.038Z,13.80
2018-04-30T11:10:52.362Z,14.50
2018-04-30T11:13:20.659Z,14.80
2018-04-30T11:15:48.227Z,14.80
2018-04-30T11:18:16.519Z,14.70
2018-04-30T11:20:44.852Z,14.30
2018-04-30T11:23:13.143Z,14.10
2018-04-30T11:25:41.462Z,14.00
2018-04-30T11:28:09.750Z,13.90
2018-04-30T11:30:38.067Z,13.80
2018-04-30T11:33:05.599Z,13.70
2018-04-30T11:35:33.931Z,13.70
2018-04-30T11:38:02.235Z,13.70
2018-04-30T11:40:30.577Z,13.60
2018-04-30T11:42:58.879Z,13.30
2018-04-30T11:45:27.214Z,13.10
2018-04-30T11:47:55.521Z,12.90
2018-04-30T11:50:23.859Z,12.70
2018-04-30T11:52:52.203Z,12.60
2018-04-30T11:55:20.486Z,12.40
2018-04-30T11:57:48.783Z,12.10
2018-04-30T12:00:17.105Z,12.00
2018-04-30T12:02:45.416Z,11.90
2018-04-30T12:05:13.738Z,11.80
2018-04-30T12:07:42.043Z,11.80
2018-04-30T12:10:10.362Z,11.70
2018-04-30T12:12:38.677Z,11.60
2018-04-30T12:15:07.011Z,11.60
2018-04-30T12:17:35.317Z,11.70
2018-04-30T12:20:03.663Z,11.90
2018-04-30T12:22:31.966Z,12.00
2018-04-30T12:25:00.293Z,11.90
2018-04-30T12:27:28.623Z,11.80
2018-04-30T12:29:56.922Z,11.60
2018-04-30T12:32:25.249Z,11.20
2018-04-30T12:34:53.560Z,11.10
2018-04-30T12:37:21.887Z,11.20
2018-04-30T12:39:50.183Z,11.50
2018-04-30T12:42:18.507Z,11.80
2018-04-30T12:44:46.802Z,12.10
2018-04-30T12:47:15.139Z,12.30
2018-04-30T12:49:43.524Z,12.50
2018-04-30T12:52:11.779Z,12.80
2018-04-30T12:54:40.093Z,12.90
2018-04-30T12:57:08.426Z,12.90
2018-04-30T12:59:36.722Z,13.10
2018-04-30T13:02:05.063Z,13.20
2018-04-30T13:04:33.938Z,13.10
2018-04-30T13:07:02.275Z,13.00
2018-04-30T13:09:30.583Z,13.00
2018-04-30T13:11:58.922Z,13.30
2018-04-30T13:14:27.222Z,13.50
2018-04-30T13:16:55.555Z,13.50
2018-04-30T13:19:23.088Z,13.50
2018-04-30T13:21:51.411Z,13.20
2018-04-30T13:24:19.706Z,13.20
2018-04-30T13:26:48.024Z,12.90
2018-04-30T13:29:16.319Z,12.80
2018-04-30T13:31:44.636Z,12.80
2018-04-30T13:34:12.931Z,12.80
2018-04-30T13:36:41.251Z,13.00
2018-04-30T13:39:09.547Z,13.10
2018-04-30T13:41:37.863Z,13.40
2018-04-30T13:44:05.386Z,13.40
2018-04-30T13:46:33.991Z,13.70
2018-04-30T13:49:02.282Z,13.70
2018-04-30T13:51:30.613Z,13.50
2018-04-30T13:53:58.902Z,13.60
2018-04-30T13:56:27.222Z,13.60
2018-04-30T13:58:55.518Z,13.40
2018-04-30T14:01:23.859Z,13.10
2018-04-30T14:03:52.150Z,13.00
2018-04-30T14:06:20.467Z,12.80
2018-04-30T14:08:48.762Z,12.80
2018-04-30T14:11:17.089Z,12.70
2018-04-30T14:13:45.384Z,12.60
2018-04-30T14:16:13.702Z,12.80
2018-04-30T14:18:42.000Z,13.00
2018-04-30T14:21:10.287Z,13.10
2018-04-30T14:23:38.619Z,13.20
2018-04-30T14:26:06.920Z,13.10
2018-04-30T14:28:35.238Z,13.10
2018-04-30T14:31:04.187Z,13.30
2018-04-30T14:33:32.502Z,13.20
2018-04-30T14:36:00.800Z,13.40
2018-04-30T14:38:29.140Z,13.20
2018-04-30T14:40:57.431Z,12.80
2018-04-30T14:43:25.754Z,12.40
2018-04-30T14:45:53.274Z,12.40
2018-04-30T14:48:21.598Z,12.10
2018-04-30T14:50:49.884Z,12.40
2018-04-30T14:53:18.203Z,12.60
2018-04-30T14:55:46.490Z,12.50
2018-04-30T14:58:14.815Z,12.40
2018-04-30T15:00:43.117Z,12.20
2018-04-30T15:03:10.670Z,12.20
2018-04-30T15:05:38.955Z,12.20
2018-04-30T15:08:07.275Z,12.30
2018-04-30T15:10:35.571Z,12.30
2018-04-30T15:13:03.892Z,12.30
2018-04-30T15:15:32.188Z,12.40
2018-04-30T15:18:00.519Z,12.50
2018-04-30T15:20:28.811Z,12.60
2018-04-30T15:22:57.138Z,12.70
2018-04-30T15:25:25.422Z,12.80
2018-04-30T15:27:53.742Z,13.00
2018-04-30T15:30:22.043Z,13.00
2018-04-30T15:32:50.362Z,13.10
2018-04-30T15:35:18.655Z,13.20
2018-04-30T15:37:46.982Z,13.20
2018-04-30T15:40:15.274Z,13.50
2018-04-30T15:42:43.587Z,13.80
2018-04-30T15:45:11.879Z,13.80
2018-04-30T15:47:40.215Z,14.00
2018-04-30T15:50:08.511Z,13.90
2018-04-30T15:52:36.836Z,13.70
2018-04-30T15:55:05.136Z,13.40
2018-04-30T15:57:33.493Z,13.20
2018-04-30T16:00:01.798Z,13.20
2018-04-30T16:02:30.110Z,13.10
2018-04-30T16:04:58.401Z,12.80
2018-04-30T16:07:26.724Z,12.50
2018-04-30T16:09:55.016Z,12.50
2018-04-30T16:12:23.336Z,12.40
2018-04-30T16:14:51.636Z,12.20
2018-04-30T16:17:19.954Z,12.00
2018-04-30T16:19:48.239Z,11.90
2018-04-30T16:22:16.530Z,11.90
2018-04-30T16:24:44.851Z,11.90
2018-04-30T16:27:13.207Z,11.90
2018-04-30T16:29:41.530Z,11.80
2018-04-30T16:32:09.948Z,11.70
2018-04-30T16:34:38.267Z,11.60
2018-04-30T16:37:06.554Z,11.50
2018-04-30T16:39:34.934Z,11.50
2018-04-30T16:42:03.182Z,11.30
2018-04-30T16:44:31.536Z,11.20
2018-04-30T16:46:59.839Z,11.10
2018-04-30T16:49:28.167Z,11.00
2018-04-30T16:51:56.458Z,11.00
2018-04-30T16:54:24.781Z,11.10
2018-04-30T16:56:53.079Z,11.10
2018-04-30T16:59:20.634Z,11.10
2018-04-30T17:01:48.927Z,11.10
2018-04-30T17:04:17.659Z,10.90
2018-04-30T17:06:45.998Z,10.80
2018-04-30T17:09:14.314Z,10.70
2018-04-30T17:11:42.616Z,10.60
2018-04-30T17:14:13.447Z,10.60
2018-04-30T17:16:42.172Z,10.40
2018-04-30T17:19:10.904Z,10.20
2018-04-30T17:21:39.321Z,10.10
2018-04-30T17:24:07.840Z,10.00
2018-04-30T17:26:35.367Z,10.00
2018-04-30T17:29:03.674Z,9.90
2018-04-30T17:31:31.958Z,9.80
2018-04-30T17:34:00.291Z,9.80
2018-04-30T17:36:28.616Z,9.80
2018-04-30T17:38:56.915Z,9.70
2018-04-30T17:41:25.208Z,9.60
2018-04-30T17:43:53.536Z,9.40
2018-04-30T17:46:21.823Z,9.20
2018-04-30T17:48:50.141Z,9.10
2018-04-30T17:51:18.441Z,9.00
2018-04-30T17:53:46.775Z,9.00
2018-04-30T17:56:15.070Z,9.00
2018-04-30T17:58:43.456Z,9.00
2018-04-30T18:01:11.699Z,8.90
2018-04-30T18:03:40.017Z,8.80
2018-04-30T18:06:08.311Z,8.60
2018-04-30T18:08:36.635Z,8.50
2018-04-30T18:11:04.935Z,8.40
2018-04-30T18:13:33.259Z,8.40
2018-04-30T18:16:01.551Z,8.30
2018-04-30T18:18:29.883Z,8.20
2018-04-30T18:20:58.215Z,8.10
2018-04-30T18:23:26.499Z,8.00
2018-04-30T18:25:54.816Z,8.00
2018-04-30T18:28:22.335Z,8.00
2018-04-30T18:30:50.652Z,7.90
2018-04-30T18:33:19.015Z,7.80
2018-04-30T18:35:47.280Z,7.80
2018-04-30T18:38:15.572Z,7.80
2018-04-30T18:40:43.894Z,7.80
2018-04-30T18:43:12.203Z,7.70
2018-04-30T18:45:40.570Z,7.70
2018-04-30T18:48:08.891Z,7.70
2018-04-30T18:50:37.215Z,7.60
2018-04-30T18:53:05.030Z,7.60
2018-04-30T18:55:32.882Z,7.60
2018-04-30T18:58:00.829Z,7.60
2018-04-30T19:00:29.155Z,7.60
2018-04-30T19:02:57.453Z,7.60
2018-04-30T19:05:25.784Z,7.60
2018-04-30T19:07:53.310Z,7.60
2018-04-30T19:10:21.658Z,7.50
2018-04-30T19:12:49.970Z,7.50
2018-04-30T19:15:18.291Z,7.40
2018-04-30T19:17:46.583Z,7.30
2018-04-30T19:20:14.914Z,7.30
2018-04-30T19:22:43.299Z,7.30
2018-04-30T19:25:11.631Z,7.30
2018-04-30T19:27:39.931Z,7.40
2018-04-30T19:30:08.246Z,7.30
2018-04-30T19:32:36.536Z,7.30
2018-04-30T19:35:04.854Z,7.30
2018-04-30T19:37:33.152Z,7.20
2018-04-30T19:40:01.568Z,7.20
2018-04-30T19:42:29.857Z,7.20
2018-04-30T19:44:58.179Z,7.20
2018-04-30T19:47:26.479Z,7.20
2018-04-30T19:49:54.795Z,7.20
2018-04-30T19:52:23.168Z,7.20
2018-04-30T19:54:51.491Z,7.20
2018-04-30T19:57:19.790Z,7.20
2018-04-30T19:59:48.112Z,7.10
2018-04-30T20:02:16.403Z,7.00
2018-04-30T20:04:44.720Z,7.00
2018-04-30T20:07:13.031Z,7.00
2018-04-30T20:09:41.359Z,7.10
2018-04-30T20:12:09.650Z,7.00
2018-04-30T20:14:37.473Z,7.00
2018-04-30T20:17:05.795Z,6.90
2018-04-30T20:19:34.096Z,6.90
2018-04-30T20:22:02.420Z,6.80
2018-04-30T20:24:30.720Z,6.80
2018-04-30T20:26:58.270Z,6.70
2018-04-30T20:29:25.806Z,6.70
2018-04-30T20:31:54.119Z,6.60
2018-04-30T20:34:22.416Z,6.60
2018-04-30T20:36:50.767Z,6.50
2018-04-30T20:39:19.065Z,6.50
2018-04-30T20:41:47.391Z,6.40
2018-04-30T20:44:15.682Z,6.40
2018-04-30T20:46:44.001Z,6.30
2018-04-30T20:49:12.298Z,6.20
2018-04-30T20:51:40.614Z,6.20
2018-04-30T20:54:08.912Z,6.30
2018-04-30T20:56:37.225Z,6.20
2018-04-30T20:59:05.515Z,6.30
2018-04-30T21:01:33.863Z,6.20
2018-04-30T21:04:02.164Z,6.20
2018-04-30T21:06:30.485Z,6.20
2018-04-30T21:09:10.814Z,6.10
2018-04-30T21:11:39.148Z,6.10
2018-04-30T21:14:07.438Z,6.00
2018-04-30T21:16:35.734Z,6.00
2018-04-30T21:19:04.059Z,6.00
2018-04-30T21:21:32.359Z,6.00
2018-04-30T21:24:00.683Z,6.00
2018-04-30T21:26:28.967Z,6.00
2018-04-30T21:28:56.514Z,6.00
2018-04-30T21:31:24.809Z,5.90
2018-04-30T21:33:53.122Z,5.90
2018-04-30T21:36:20.638Z,5.90
2018-04-30T21:38:48.964Z,5.80
2018-04-30T21:41:17.266Z,5.80
2018-04-30T21:43:45.578Z,5.80
2018-04-30T21:46:13.872Z,5.80
2018-04-30T21:48:42.182Z,5.80
2018-04-30T21:51:10.475Z,5.80
2018-04-30T21:53:38.793Z,5.80
2018-04-30T21:56:07.095Z,5.80
2018-04-30T21:58:35.416Z,5.70
2018-04-30T22:01:04.678Z,5.80
2018-04-30T22:03:32.991Z,5.70
2018-04-30T22:06:01.308Z,5.70
2018-04-30T22:08:29.598Z,5.70
2018-04-30T22:10:57.906Z,5.70
2018-04-30T22:13:26.190Z,5.70
2018-04-30T22:15:54.507Z,5.70
2018-04-30T22:18:22.799Z,5.70
2018-04-30T22:20:51.120Z,5.60
2018-04-30T22:23:19.427Z,5.60
2018-04-30T22:25:47.734Z,5.60
2018-04-30T22:28:16.022Z,5.60
2018-04-30T22:30:44.340Z,5.50
2018-04-30T22:33:12.632Z,5.50
2018-04-30T22:35:40.947Z,5.50
2018-04-30T22:38:09.251Z,5.50
2018-04-30T22:40:37.579Z,5.50
2018-04-30T22:43:05.865Z,5.60
2018-04-30T22:45:34.179Z,5.50
2018-04-30T22:48:02.466Z,5.50
2018-04-30T22:50:30.794Z,5.50
2018-04-30T22:52:59.086Z,5.50
2018-04-30T22:55:27.409Z,5.50
2018-04-30T22:57:55.706Z,5.50
2018-04-30T23:00:26.798Z,5.60
2018-04-30T23:02:55.092Z,5.60
2018-04-30T23:05:23.391Z,5.60
2018-04-30T23:07:51.717Z,5.60
2018-04-30T23:10:20.022Z,5.60
2018-04-30T23:12:48.338Z,5.60
2018-04-30T23:15:16.626Z,5.60
2018-04-30T23:17:44.937Z,5.60
2018-04-30T23:20:13.230Z,5.60
2018-04-30T23:22:41.551Z,5.60
2018-04-30T23:25:09.844Z,5.60
2018-04-30T23:27:38.163Z,5.60
2018-04-30T23:30:06.450Z,5.60
2018-04-30T23:32:34.762Z,5.60
2018-04-30T23:35:03.058Z,5.70
2018-04-30T23:37:31.379Z,5.60
2018-04-30T23:39:59.668Z,5.70
2018-04-30T23:42:27.988Z,5.70
2018-04-30T23:44:56.279Z,5.70
2018-04-30T23:47:24.590Z,5.70
2018-04-30T23:49:52.874Z,5.70
2018-04-30T23:52:21.199Z,5.70
2018-04-30T23:54:49.562Z,5.70
2018-04-30T23:57:17.828Z,5.70
2018-04-30T23:59:46.150Z,5.70
